Time;durP1;ratioP1;P1;durP2;ratioP2;P2;SDS_P1;SDS_P2;PMS_P1;PMS_P2;Temp;Humidity;BMP_temperature;BMP_pressure;BME280_temperature;BME280_humidity;BME280_pressure;Samples;Min_cycle;Max_cycle;Signal;HPM_P1;HPM_P2
2023/09/24 00:00:55;;;;;;;3.63;2.10;;;;;;;14.01;100.00;96917.84;5078717;28;20243;-68
2023/09/24 00:03:21;;;;;;;2.90;1.97;;;;;;;13.88;100.00;96925.59;5077304;28;20245;-70
2023/09/24 00:05:48;;;;;;;2.67;1.67;;;;;;;13.88;100.00;96915.00;5078333;28;20234;-70
2023/09/24 00:08:16;;;;;;;3.38;2.03;;;;;;;14.00;100.00;96922.34;5077257;28;20682;-68
2023/09/24 00:10:46;;;;;;;2.33;1.83;;;;;;;14.14;100.00;96923.38;5078436;28;20232;-67
2023/09/24 00:13:13;;;;;;;3.25;1.52;;;;;;;14.01;100.00;96924.00;5078232;28;20234;-69
2023/09/24 00:15:40;;;;;;;2.77;1.67;;;;;;;14.19;100.00;96927.16;5078165;28;20892;-69
2023/09/24 00:18:06;;;;;;;2.42;1.70;;;;;;;14.27;100.00;96926.25;5077894;28;20207;-68
2023/09/24 00:20:33;;;;;;;1.83;1.40;;;;;;;14.05;100.00;96930.56;5078041;28;20234;-69
2023/09/24 00:22:59;;;;;;;1.95;1.30;;;;;;;14.08;100.00;96929.44;5078041;28;20220;-68
2023/09/24 00:25:28;;;;;;;2.37;1.50;;;;;;;14.18;100.00;96927.34;5076594;28;20196;-69
2023/09/24 00:27:55;;;;;;;1.80;1.40;;;;;;;14.04;100.00;96922.81;5078181;28;20235;-69
2023/09/24 00:30:22;;;;;;;4.80;1.67;;;;;;;14.08;100.00;96926.78;5077362;28;20223;-69
2023/09/24 00:32:49;;;;;;;2.38;1.67;;;;;;;14.06;100.00;96929.56;5078290;28;20354;-69
2023/09/24 00:35:16;;;;;;;2.05;1.42;;;;;;;14.07;100.00;96925.09;5077403;28;20200;-69
2023/09/24 00:37:43;;;;;;;2.22;1.50;;;;;;;14.06;100.00;96932.22;5078317;28;20285;-69
2023/09/24 00:40:11;;;;;;;2.50;1.63;;;;;;;14.35;100.00;96932.25;5076244;28;20215;-69
2023/09/24 00:42:39;;;;;;;2.50;1.60;;;;;;;14.34;100.00;96940.41;5077833;28;21019;-69
2023/09/24 00:45:10;;;;;;;3.00;1.70;;;;;;;14.52;100.00;96932.88;5076788;28;20195;-69
2023/09/24 00:47:37;;;;;;;3.20;1.70;;;;;;;14.37;100.00;96935.56;5076835;28;20732;-69
2023/09/24 00:50:04;;;;;;;2.22;1.70;;;;;;;14.46;100.00;96929.16;5077446;28;20259;-69
2023/09/24 00:52:31;;;;;;;4.77;2.10;;;;;;;14.37;100.00;96930.25;5076264;28;20222;-69
2023/09/24 00:54:58;;;;;;;3.10;1.80;;;;;;;14.40;100.00;96931.72;5076636;28;20222;-69
2023/09/24 00:57:26;;;;;;;1.67;1.52;;;;;;;14.47;100.00;96929.97;5078222;28;20204;-69
2023/09/24 00:59:58;;;;;;;1.52;1.38;;;;;;;14.61;100.00;96929.13;5076070;28;20228;-69
2023/09/24 01:02:25;;;;;;;1.98;1.52;;;;;;;14.51;100.00;96931.25;5075260;28;20657;-69
2023/09/24 01:04:54;;;;;;;4.18;2.40;;;;;;;14.49;100.00;96938.56;5076151;28;20210;-69
2023/09/24 01:07:21;;;;;;;2.10;1.42;;;;;;;14.34;100.00;96935.09;5077188;28;20653;-69
2023/09/24 01:09:49;;;;;;;1.97;1.60;;;;;;;14.40;100.00;96935.19;5075739;28;21176;-69
2023/09/24 01:12:22;;;;;;;2.03;1.52;;;;;;;14.64;100.00;96932.25;5076355;28;20234;-70
2023/09/24 01:14:49;;;;;;;4.43;1.52;;;;;;;14.24;100.00;96942.50;5075526;28;20200;-69
2023/09/24 01:17:18;;;;;;;2.50;1.80;;;;;;;14.32;100.00;96947.69;5076751;28;20196;-69
2023/09/24 01:19:45;;;;;;;3.13;1.73;;;;;;;14.10;100.00;96949.44;5076017;28;20872;-69
2023/09/24 01:22:13;;;;;;;3.60;1.63;;;;;;;14.20;100.00;96944.69;5075632;28;20292;-69
2023/09/24 01:24:39;;;;;;;2.80;1.77;;;;;;;13.97;100.00;96948.38;5075767;28;20281;-69
2023/09/24 01:27:06;;;;;;;2.67;1.40;;;;;;;13.96;100.00;96943.25;5076342;28;20196;-69
2023/09/24 01:29:33;;;;;;;3.13;1.90;;;;;;;13.96;100.00;96952.03;5076520;28;20330;-69
2023/09/24 01:31:59;;;;;;;3.90;1.95;;;;;;;13.94;100.00;96954.03;5075988;28;20224;-69
2023/09/24 01:34:26;;;;;;;3.00;1.92;;;;;;;13.93;100.00;96956.88;5076377;28;20204;-69
2023/09/24 01:36:53;;;;;;;2.65;1.67;;;;;;;13.80;100.00;96965.44;5075275;28;20212;-70
2023/09/24 01:39:26;;;;;;;2.85;1.58;;;;;;;14.05;100.00;96956.25;5077159;28;20200;-69
2023/09/24 01:41:54;;;;;;;3.40;2.10;;;;;;;13.97;100.00;96956.31;5075381;28;21088;-69
2023/09/24 01:44:21;;;;;;;2.30;1.47;;;;;;;13.99;100.00;96965.75;5076849;28;20207;-69
2023/09/24 01:46:48;;;;;;;2.53;1.60;;;;;;;13.81;100.00;96964.44;5075887;28;20212;-69
2023/09/24 01:49:16;;;;;;;2.87;1.50;;;;;;;13.67;100.00;96967.88;5076414;28;20287;-69
2023/09/24 01:51:44;;;;;;;2.90;1.60;;;;;;;13.63;100.00;96969.22;5075479;28;20237;-69
2023/09/24 01:54:11;;;;;;;1.80;1.50;;;;;;;13.70;100.00;96969.34;5075489;28;20287;-69
2023/09/24 01:56:39;;;;;;;2.78;1.38;;;;;;;13.75;100.00;96967.78;5075888;28;20206;-69
2023/09/24 01:59:06;;;;;;;1.93;1.53;;;;;;;13.60;100.00;96974.84;5075374;28;20200;-69
2023/09/24 02:01:35;;;;;;;1.58;1.38;;;;;;;13.64;100.00;96975.34;5075656;28;21233;-69
2023/09/24 02:04:03;;;;;;;1.67;1.20;;;;;;;13.47;100.00;96971.97;5075042;28;20722;-69
2023/09/24 02:06:30;;;;;;;1.37;1.27;;;;;;;13.33;100.00;96979.88;5074893;28;20215;-69
2023/09/24 02:08:57;;;;;;;2.20;1.60;;;;;;;13.45;100.00;96981.94;5075438;28;20207;-69
2023/09/24 02:11:24;;;;;;;1.43;1.03;;;;;;;13.39;100.00;96976.53;5075599;28;20231;-69
2023/09/24 02:13:52;;;;;;;1.67;1.00;;;;;;;13.44;100.00;96972.34;5074654;28;20203;-69
2023/09/24 02:16:18;;;;;;;1.65;1.35;;;;;;;13.17;100.00;96977.31;5074808;28;20196;-69
2023/09/24 02:18:45;;;;;;;1.60;1.20;;;;;;;12.94;100.00;96987.03;5077069;28;20206;-69
2023/09/24 02:21:14;;;;;;;3.07;1.10;;;;;;;12.80;100.00;96981.63;5074046;28;20585;-69
2023/09/24 02:23:41;;;;;;;1.83;1.37;;;;;;;12.72;100.00;96984.31;5075232;28;20239;-69
2023/09/24 02:26:08;;;;;;;1.80;1.10;;;;;;;12.56;100.00;96994.13;5074210;28;20204;-69
2023/09/24 02:28:38;;;;;;;4.87;1.90;;;;;;;12.44;100.00;96992.88;5076894;28;20210;-69
2023/09/24 02:31:06;;;;;;;2.43;1.30;;;;;;;12.52;100.00;96998.94;5075282;28;20343;-69
2023/09/24 02:33:34;;;;;;;2.50;1.60;;;;;;;12.44;100.00;97006.91;5075971;28;20246;-69
2023/09/24 02:36:00;;;;;;;2.17;1.47;;;;;;;12.50;100.00;97003.59;5074047;28;20950;-69
2023/09/24 02:38:28;;;;;;;2.23;1.70;;;;;;;12.45;100.00;97008.56;5075328;28;20214;-69
2023/09/24 02:40:55;;;;;;;3.23;1.80;;;;;;;12.50;100.00;97002.75;5075374;28;20224;-69
2023/09/24 02:43:22;;;;;;;2.13;1.60;;;;;;;12.29;100.00;97008.56;5075815;28;20200;-69
2023/09/24 02:45:49;;;;;;;1.90;1.20;;;;;;;12.44;100.00;97008.72;5073219;28;20214;-69
2023/09/24 02:48:18;;;;;;;2.27;1.40;;;;;;;12.47;100.00;97011.03;5074909;28;20210;-69
2023/09/24 02:50:45;;;;;;;2.27;1.70;;;;;;;12.15;100.00;97015.56;5076293;28;20234;-69
2023/09/24 02:53:11;;;;;;;2.80;1.53;;;;;;;12.16;100.00;97021.50;5074222;28;20324;-69
2023/09/24 02:55:38;;;;;;;2.93;1.73;;;;;;;12.23;100.00;97022.47;5075219;28;20199;-69
2023/09/24 02:58:05;;;;;;;2.53;1.40;;;;;;;12.32;100.00;97026.75;5074516;28;20208;-69
2023/09/24 03:00:35;;;;;;;3.33;1.80;;;;;;;12.40;100.00;97023.28;5075477;28;21012;-68
2023/09/24 03:03:03;;;;;;;2.27;1.37;;;;;;;12.52;100.00;97021.91;5074341;28;20207;-69
2023/09/24 03:05:31;;;;;;;1.33;1.00;;;;;;;12.45;100.00;97027.06;5075278;28;20209;-70
2023/09/24 03:08:00;;;;;;;1.63;0.97;;;;;;;12.30;100.00;97036.66;5074750;28;20200;-69
2023/09/24 03:10:27;;;;;;;3.07;1.00;;;;;;;12.11;100.00;97030.91;5074840;28;20230;-69
2023/09/24 03:12:55;;;;;;;1.17;1.00;;;;;;;12.07;100.00;97039.34;5074577;28;20746;-69
2023/09/24 03:15:23;;;;;;;1.10;0.90;;;;;;;11.97;100.00;97042.16;5074348;28;20196;-69
2023/09/24 03:17:49;;;;;;;1.90;1.40;;;;;;;12.04;100.00;97035.22;5075546;28;20245;-69
2023/09/24 03:20:18;;;;;;;1.93;1.50;;;;;;;11.98;100.00;97035.06;5074063;28;20223;-69
2023/09/24 03:22:49;;;;;;;1.50;1.30;;;;;;;12.07;100.00;97050.75;5073678;28;20210;-69
2023/09/24 03:25:17;;;;;;;1.80;1.50;;;;;;;11.80;100.00;97052.88;5072593;28;20861;-69
2023/09/24 03:27:44;;;;;;;2.27;1.57;;;;;;;11.78;100.00;97063.59;5078895;28;20199;-69
2023/09/24 03:30:13;;;;;;;2.60;1.27;;;;;;;11.76;100.00;97062.13;5078671;28;20588;-69
2023/09/24 03:32:41;;;;;;;1.50;1.23;;;;;;;11.87;100.00;97064.44;5080035;28;20223;-69
2023/09/24 03:35:10;;;;;;;1.30;1.10;;;;;;;11.97;100.00;97067.75;5077487;28;20207;-69
2023/09/24 03:37:40;;;;;;;1.47;1.37;;;;;;;11.69;100.00;97076.97;5079145;28;20241;-69
2023/09/24 03:40:10;;;;;;;1.60;1.50;;;;;;;11.93;100.00;97075.19;5079627;28;20223;-68
2023/09/24 03:42:37;;;;;;;1.43;1.20;;;;;;;11.84;100.00;97075.34;5079785;28;20200;-69
2023/09/24 03:45:05;;;;;;;1.93;1.40;;;;;;;11.75;100.00;97076.34;5077651;28;20704;-69
2023/09/24 03:47:31;;;;;;;1.40;1.30;;;;;;;11.52;100.00;97079.75;5078221;28;20207;-68
2023/09/24 03:49:58;;;;;;;1.50;1.03;;;;;;;11.77;100.00;97076.97;5079239;28;20226;-68
2023/09/24 03:52:24;;;;;;;1.40;1.10;;;;;;;11.73;100.00;97088.88;5078292;28;20223;-69
2023/09/24 03:54:51;;;;;;;1.77;1.30;;;;;;;11.80;100.00;97084.56;5077510;28;20212;-68
2023/09/24 03:57:19;;;;;;;1.20;1.10;;;;;;;11.70;100.00;97082.09;5079529;28;20227;-69
2023/09/24 03:59:46;;;;;;;1.30;1.20;;;;;;;11.43;100.00;97085.97;5078984;28;20230;-69
2023/09/24 04:02:14;;;;;;;1.43;1.20;;;;;;;11.53;100.00;97087.50;5078519;28;20573;-68
2023/09/24 04:04:42;;;;;;;1.33;1.17;;;;;;;11.42;100.00;97090.44;5078284;28;20226;-69
2023/09/24 04:07:09;;;;;;;2.13;1.30;;;;;;;11.27;100.00;97092.03;5078328;28;20665;-69
2023/09/24 04:09:36;;;;;;;1.20;1.10;;;;;;;11.39;100.00;97087.28;5077259;28;20200;-68
2023/09/24 04:12:02;;;;;;;3.13;1.20;;;;;;;11.29;100.00;97092.72;5078515;28;20234;-68
2023/09/24 04:14:30;;;;;;;1.53;1.20;;;;;;;11.24;100.00;97091.50;5077818;28;20732;-69
2023/09/24 04:16:57;;;;;;;2.30;1.53;;;;;;;11.15;100.00;97095.13;5077902;28;20990;-68
2023/09/24 04:19:24;;;;;;;1.97;1.23;;;;;;;11.29;100.00;97095.34;5077632;28;20791;-68
2023/09/24 04:21:51;;;;;;;1.70;1.43;;;;;;;11.05;100.00;97097.91;5077838;28;20687;-69
2023/09/24 04:24:18;;;;;;;1.17;1.07;;;;;;;11.09;100.00;97099.22;5077562;28;20196;-69
2023/09/24 04:26:45;;;;;;;3.43;1.30;;;;;;;11.01;100.00;97098.38;5077411;28;20204;-68
2023/09/24 04:29:12;;;;;;;1.30;1.13;;;;;;;11.17;100.00;97096.59;5078248;28;20199;-68
2023/09/24 04:31:40;;;;;;;1.77;1.20;;;;;;;11.30;100.00;97104.06;5076775;28;20226;-69
2023/09/24 04:34:09;;;;;;;3.13;1.47;;;;;;;11.29;100.00;97105.91;5077872;28;20227;-69
2023/09/24 04:36:35;;;;;;;2.03;1.50;;;;;;;11.37;100.00;97119.13;5076415;28;20203;-68
2023/09/24 04:39:03;;;;;;;1.40;1.00;;;;;;;11.41;100.00;97122.28;5077803;28;20199;-68
2023/09/24 04:41:30;;;;;;;1.40;1.10;;;;;;;11.45;100.00;97115.69;5077103;28;20220;-68
2023/09/24 04:43:56;;;;;;;1.63;1.20;;;;;;;11.36;100.00;97120.09;5078529;28;20196;-69
2023/09/24 04:46:23;;;;;;;1.53;1.00;;;;;;;11.17;100.00;97127.44;5076584;28;20200;-68
2023/09/24 04:48:51;;;;;;;2.33;1.10;;;;;;;11.33;100.00;97120.44;5078035;28;20322;-69
2023/09/24 04:51:17;;;;;;;2.00;1.07;;;;;;;11.22;100.00;97122.53;5076485;28;20225;-68
2023/09/24 04:53:44;;;;;;;1.50;1.13;;;;;;;11.31;100.00;97119.75;5077914;28;20223;-68
2023/09/24 04:56:10;;;;;;;1.10;1.00;;;;;;;11.27;100.00;97123.69;5077271;28;20203;-68
2023/09/24 04:58:37;;;;;;;1.13;1.00;;;;;;;10.93;100.00;97129.16;5076975;28;20295;-68
2023/09/24 05:01:05;;;;;;;1.77;1.40;;;;;;;11.13;100.00;97131.41;5077793;28;20235;-68
2023/09/24 05:03:32;;;;;;;1.53;1.20;;;;;;;11.11;100.00;97128.94;5076638;28;20203;-68
2023/09/24 05:06:00;;;;;;;1.43;1.17;;;;;;;11.19;100.00;97136.88;5076270;28;20208;-69
2023/09/24 05:08:27;;;;;;;0.90;0.90;;;;;;;11.05;100.00;97139.28;5076920;28;20200;-68
2023/09/24 05:10:54;;;;;;;1.50;1.13;;;;;;;10.98;100.00;97141.72;5077128;28;20220;-69
2023/09/24 05:13:21;;;;;;;1.03;0.93;;;;;;;11.05;100.00;97144.56;5077019;28;20230;-69
2023/09/24 05:15:51;;;;;;;1.13;0.90;;;;;;;11.21;100.00;97150.69;5076539;28;20208;-69
2023/09/24 05:18:17;;;;;;;1.00;0.87;;;;;;;11.07;100.00;97145.22;5077239;28;20228;-68
2023/09/24 05:20:44;;;;;;;1.00;0.90;;;;;;;10.99;100.00;97153.09;5075910;28;20223;-69
2023/09/24 05:23:12;;;;;;;1.80;1.10;;;;;;;11.08;100.00;97154.78;5076721;28;20207;-69
2023/09/24 05:25:38;;;;;;;1.47;1.10;;;;;;;10.95;100.00;97164.94;5076347;28;20196;-69
2023/09/24 05:28:05;;;;;;;0.73;0.73;;;;;;;10.92;100.00;97167.91;5076141;28;20208;-69
2023/09/24 05:30:32;;;;;;;1.30;1.20;;;;;;;10.87;100.00;97170.19;5076575;28;20223;-69
2023/09/24 05:32:59;;;;;;;2.13;1.00;;;;;;;10.84;100.00;97172.28;5076404;28;20270;-68
2023/09/24 05:35:26;;;;;;;1.87;1.47;;;;;;;10.68;100.00;97166.91;5076057;28;20211;-69
2023/09/24 05:37:52;;;;;;;1.53;1.27;;;;;;;10.60;100.00;97170.34;5076969;28;20298;-69
2023/09/24 05:40:20;;;;;;;2.07;1.40;;;;;;;10.73;100.00;97169.91;5076208;28;20234;-69
2023/09/24 05:42:47;;;;;;;1.43;1.30;;;;;;;10.66;100.00;97166.25;5075920;28;20658;-70
2023/09/24 05:45:14;;;;;;;1.73;1.47;;;;;;;10.49;100.00;97175.03;5075786;28;20208;-69
2023/09/24 05:47:41;;;;;;;2.60;1.50;;;;;;;10.79;100.00;97175.38;5076344;28;20204;-69
2023/09/24 05:50:08;;;;;;;2.47;1.47;;;;;;;10.81;100.00;97172.63;5075808;28;20227;-68
2023/09/24 05:52:35;;;;;;;1.77;1.50;;;;;;;10.88;100.00;97171.00;5076111;28;20222;-69
2023/09/24 05:55:02;;;;;;;1.90;1.40;;;;;;;10.94;100.00;97176.47;5075057;28;20207;-69
2023/09/24 05:57:30;;;;;;;3.30;2.07;;;;;;;11.20;100.00;97172.81;5077145;28;20200;-69
2023/09/24 05:59:57;;;;;;;3.30;2.00;;;;;;;11.19;100.00;97179.06;5076990;28;20220;-69
2023/09/24 06:02:25;;;;;;;2.83;1.60;;;;;;;11.38;100.00;97177.97;5076373;28;20207;-69
2023/09/24 06:04:51;;;;;;;2.50;1.60;;;;;;;11.35;100.00;97178.31;5075505;28;20204;-70
2023/09/24 06:07:18;;;;;;;2.00;1.37;;;;;;;11.50;100.00;97174.94;5076616;28;20294;-69
2023/09/24 06:09:45;;;;;;;1.70;1.60;;;;;;;11.63;100.00;97178.78;5075867;28;20230;-69
2023/09/24 06:12:11;;;;;;;2.40;1.80;;;;;;;11.70;100.00;97176.34;5075200;28;21019;-69
2023/09/24 06:14:39;;;;;;;3.97;1.87;;;;;;;11.78;100.00;97179.78;5075692;28;21079;-68
2023/09/24 06:17:06;;;;;;;2.90;1.80;;;;;;;11.62;100.00;97187.69;5073096;28;20200;-68
2023/09/24 06:19:33;;;;;;;2.77;1.90;;;;;;;11.60;100.00;97180.91;5072633;28;20202;-69
2023/09/24 06:21:59;;;;;;;2.30;1.67;;;;;;;11.59;100.00;97188.00;5072921;28;20692;-69
2023/09/24 06:24:26;;;;;;;3.10;2.10;;;;;;;11.53;100.00;97182.53;5073937;28;20195;-69
2023/09/24 06:26:53;;;;;;;2.97;2.07;;;;;;;11.52;100.00;97194.09;5073522;28;20337;-69
2023/09/24 06:29:20;;;;;;;2.50;1.67;;;;;;;11.67;100.00;97189.84;5073927;28;20260;-68
2023/09/24 06:31:50;;;;;;;3.20;1.90;;;;;;;11.95;100.00;97193.88;5074495;28;20210;-69
2023/09/24 06:34:17;;;;;;;2.83;1.93;;;;;;;11.91;100.00;97188.06;5073201;28;20211;-70
2023/09/24 06:36:43;;;;;;;4.33;3.00;;;;;;;11.97;100.00;97184.78;5072817;28;20258;-70
2023/09/24 06:39:13;;;;;;;4.77;2.80;;;;;;;11.92;100.00;97188.91;5074000;28;20196;-69
2023/09/24 06:41:40;;;;;;;3.93;2.40;;;;;;;12.05;100.00;97190.09;5073955;28;20789;-68
2023/09/24 06:44:09;;;;;;;4.87;2.50;;;;;;;12.18;100.00;97195.72;5075508;28;20579;-69
2023/09/24 06:46:36;;;;;;;2.93;2.30;;;;;;;12.21;100.00;97196.22;5075096;28;20200;-68
2023/09/24 06:49:04;;;;;;;4.70;2.80;;;;;;;12.32;100.00;97197.72;5074995;28;20204;-70
2023/09/24 06:51:31;;;;;;;4.03;2.40;;;;;;;12.18;100.00;97201.84;5070442;28;20230;-73
2023/09/24 06:53:57;;;;;;;3.77;2.40;;;;;;;12.32;100.00;97203.84;5073250;28;20223;-74
2023/09/24 06:56:24;;;;;;;2.17;1.87;;;;;;;12.26;100.00;97207.13;5073184;28;20235;-71
2023/09/24 06:58:51;;;;;;;2.10;1.70;;;;;;;12.32;100.00;97203.84;5073975;28;20208;-70
2023/09/24 07:01:18;;;;;;;4.77;1.97;;;;;;;12.48;100.00;97205.66;5072399;28;20219;-73
2023/09/24 07:03:44;;;;;;;2.10;1.50;;;;;;;12.46;100.00;97200.53;5073926;28;20195;-71
2023/09/24 07:06:13;;;;;;;2.53;1.83;;;;;;;12.74;100.00;97196.56;5073414;28;20207;-69
2023/09/24 07:08:39;;;;;;;3.93;1.80;;;;;;;12.73;100.00;97202.84;5074243;28;21018;-71
2023/09/24 07:11:27;;;;;;;2.63;1.63;;;;;;;13.12;100.00;97209.09;5073014;28;20228;-70
2023/09/24 07:13:54;;;;;;;2.63;1.90;;;;;;;12.87;100.00;97199.56;5073604;28;20599;-72
2023/09/24 07:16:23;;;;;;;2.53;1.77;;;;;;;12.86;100.00;97205.84;5073093;28;20199;-72
2023/09/24 07:18:51;;;;;;;2.90;1.73;;;;;;;12.97;100.00;97210.75;5074456;28;20208;-72
2023/09/24 07:21:20;;;;;;;3.10;2.03;;;;;;;13.14;100.00;97209.75;5072816;28;20224;-73
2023/09/24 07:23:49;;;;;;;2.53;1.80;;;;;;;13.15;100.00;97212.22;5074474;28;20204;-69
2023/09/24 07:26:16;;;;;;;2.33;1.70;;;;;;;13.25;100.00;97215.50;5072464;28;20323;-68
2023/09/24 07:28:43;;;;;;;2.27;1.60;;;;;;;13.30;100.00;97218.47;5074724;28;20215;-69
2023/09/24 07:31:19;;;;;;;2.07;1.57;;;;;;;13.37;100.00;97218.63;5072064;28;20226;-72
2023/09/24 07:33:46;;;;;;;2.40;1.80;;;;;;;13.45;100.00;97220.25;5072966;28;20219;-69
2023/09/24 07:36:12;;;;;;;2.60;1.90;;;;;;;13.55;100.00;97217.38;5072649;28;20204;-70
2023/09/24 07:38:41;;;;;;;3.53;1.90;;;;;;;13.59;100.00;97219.53;5074095;28;20203;-68
2023/09/24 07:41:08;;;;;;;2.50;1.93;;;;;;;13.63;100.00;97223.50;5073692;28;20226;-70
2023/09/24 07:43:36;;;;;;;4.40;1.90;;;;;;;13.90;100.00;97228.34;5072243;28;20219;-70
2023/09/24 07:46:03;;;;;;;3.23;1.93;;;;;;;14.06;100.00;97226.41;5073791;28;20200;-69
2023/09/24 07:48:30;;;;;;;2.57;1.80;;;;;;;13.94;100.00;97237.56;5072675;28;20201;-71
2023/09/24 07:50:57;;;;;;;3.27;1.80;;;;;;;14.24;100.00;97231.47;5073361;28;20232;-69
2023/09/24 07:53:24;;;;;;;2.80;1.90;;;;;;;14.55;100.00;97232.25;5072905;28;20220;-68
2023/09/24 07:56:02;;;;;;;3.50;1.70;;;;;;;14.68;100.00;97234.13;5074276;28;20206;-72
2023/09/24 07:58:30;;;;;;;2.78;1.50;;;;;;;14.57;100.00;97241.66;5072768;28;20200;-72
2023/09/24 08:01:02;;;;;;;4.88;1.70;;;;;;;14.84;100.00;97236.66;5073802;28;20242;-71
2023/09/24 08:03:28;;;;;;;3.50;1.77;;;;;;;14.86;100.00;97242.59;5073074;28;20243;-69
2023/09/24 08:05:55;;;;;;;2.80;1.02;;;;;;;15.14;100.00;97240.19;5072301;28;20239;-70
2023/09/24 08:08:21;;;;;;;2.13;1.20;;;;;;;15.02;100.00;97247.78;5070731;28;20196;-72
2023/09/24 08:10:48;;;;;;;1.63;1.20;;;;;;;15.24;100.00;97244.25;5072385;28;20230;-71
2023/09/24 08:13:16;;;;;;;2.10;1.25;;;;;;;15.39;100.00;97240.63;5074137;28;20215;-68
2023/09/24 08:15:42;;;;;;;1.70;1.20;;;;;;;15.24;100.00;97246.13;5075900;28;20199;-69
2023/09/24 08:18:11;;;;;;;2.08;1.20;;;;;;;15.44;100.00;97245.38;5075599;28;20207;-71
2023/09/24 08:20:38;;;;;;;2.08;1.35;;;;;;;15.50;100.00;97239.34;5075003;28;20814;-69
2023/09/24 08:23:05;;;;;;;1.30;1.00;;;;;;;15.52;100.00;97232.84;5077344;28;20208;-70
2023/09/24 08:25:33;;;;;;;1.60;1.20;;;;;;;15.76;100.00;97231.72;5075561;28;20215;-69
2023/09/24 08:28:00;;;;;;;5.45;1.30;;;;;;;15.86;100.00;97233.91;5071220;28;20207;-69
2023/09/24 08:30:30;;;;;;;1.30;1.08;;;;;;;16.12;100.00;97230.75;5076092;28;20227;-71
2023/09/24 08:32:56;;;;;;;1.63;1.23;;;;;;;16.12;100.00;97231.56;5075009;28;20203;-69
2023/09/24 08:35:23;;;;;;;1.73;0.98;;;;;;;16.06;100.00;97242.13;5075051;28;20702;-69
2023/09/24 08:37:50;;;;;;;1.40;1.00;;;;;;;16.22;100.00;97241.94;5073160;28;20647;-70
2023/09/24 08:40:17;;;;;;;2.63;1.13;;;;;;;16.37;100.00;97240.06;5076424;28;20232;-70
2023/09/24 08:42:47;;;;;;;4.88;1.27;;;;;;;16.43;100.00;97241.97;5075304;28;20192;-71
2023/09/24 08:45:15;;;;;;;1.90;1.30;;;;;;;16.52;100.00;97241.66;5072432;28;20208;-72
2023/09/24 08:47:45;;;;;;;4.20;1.63;;;;;;;16.76;100.00;97249.28;5076024;28;20539;-70
2023/09/24 08:50:11;;;;;;;3.00;1.48;;;;;;;16.74;100.00;97246.81;5070253;28;20227;-71
2023/09/24 08:52:40;;;;;;;1.10;1.00;;;;;;;16.75;100.00;97244.94;5074729;28;20204;-69
2023/09/24 08:55:09;;;;;;;1.55;1.10;;;;;;;16.62;100.00;97250.16;5074860;28;20234;-69
2023/09/24 08:57:36;;;;;;;1.90;0.90;;;;;;;16.83;100.00;97250.97;5075521;28;20208;-69
2023/09/24 09:00:04;;;;;;;3.78;1.20;;;;;;;16.64;100.00;97253.47;5074283;28;20231;-71
2023/09/24 09:02:30;;;;;;;2.15;1.25;;;;;;;16.71;100.00;97249.00;5074013;28;20802;-69
2023/09/24 09:04:59;;;;;;;2.90;1.30;;;;;;;17.01;100.00;97250.53;5074000;28;20210;-70
2023/09/24 09:07:25;;;;;;;1.20;1.00;;;;;;;16.99;100.00;97248.03;5074597;28;20204;-71
2023/09/24 09:09:56;;;;;;;1.15;0.85;;;;;;;17.15;100.00;97248.59;5074350;28;20224;-72
2023/09/24 09:12:24;;;;;;;2.00;1.17;;;;;;;17.34;100.00;97245.28;5074755;28;20756;-71
2023/09/24 09:14:51;;;;;;;2.85;1.20;;;;;;;17.63;100.00;97239.75;5075181;28;20958;-71
2023/09/24 09:17:18;;;;;;;1.20;1.10;;;;;;;17.48;100.00;97243.56;5075677;28;20224;-69
2023/09/24 09:19:52;;;;;;;1.55;1.17;;;;;;;17.75;100.00;97240.84;5075822;28;20229;-71
2023/09/24 09:22:21;;;;;;;1.38;1.10;;;;;;;17.41;100.00;97238.19;5075345;28;20235;-72
2023/09/24 09:24:49;;;;;;;1.95;0.90;;;;;;;17.42;100.00;97242.47;5074302;28;20211;-69
2023/09/24 09:27:16;;;;;;;3.40;1.20;;;;;;;17.49;100.00;97248.69;5075358;28;20204;-69
2023/09/24 09:29:43;;;;;;;0.80;0.80;;;;;;;17.76;100.00;97247.81;5075414;28;20224;-71
2023/09/24 09:32:10;;;;;;;2.58;1.20;;;;;;;17.79;100.00;97247.41;5075416;28;20654;-70
2023/09/24 09:34:37;;;;;;;2.35;0.75;;;;;;;18.14;100.00;97251.69;5073965;28;20227;-71
2023/09/24 09:37:17;;;;;;;1.63;1.13;;;;;;;18.06;100.00;97243.84;5076254;28;20315;-70
2023/09/24 09:39:46;;;;;;;1.95;0.90;;;;;;;18.13;100.00;97242.88;5074515;28;20223;-72
2023/09/24 09:42:20;;;;;;;9.63;0.88;;;;;;;18.22;100.00;97239.03;5076210;28;20204;-71
2023/09/24 09:44:50;;;;;;;1.63;0.60;;;;;;;18.13;100.00;97240.19;5074240;28;20242;-70
2023/09/24 09:47:18;;;;;;;1.38;0.80;;;;;;;17.95;100.00;97241.78;5075044;28;20213;-70
2023/09/24 09:49:53;;;;;;;6.47;1.08;;;;;;;18.33;100.00;97240.28;5075902;28;20224;-71
2023/09/24 09:52:21;;;;;;;1.52;0.90;;;;;;;18.13;100.00;97234.88;5074620;28;20203;-70
2023/09/24 09:54:54;;;;;;;0.93;0.70;;;;;;;17.76;100.00;97242.50;5073224;28;21120;-71
2023/09/24 09:57:21;;;;;;;1.58;0.55;;;;;;;17.67;100.00;97235.66;5075783;28;20211;-70
2023/09/24 09:59:48;;;;;;;0.90;0.75;;;;;;;17.52;100.00;97231.47;5072818;28;20228;-70
2023/09/24 10:02:15;;;;;;;0.80;0.70;;;;;;;17.64;100.00;97238.72;5074431;28;20200;-72
2023/09/24 10:04:42;;;;;;;0.73;0.50;;;;;;;17.71;95.63;97227.06;5073196;28;20196;-71
2023/09/24 10:07:09;;;;;;;0.75;0.50;;;;;;;18.01;97.83;97227.63;5075799;28;20204;-69
2023/09/24 10:09:35;;;;;;;1.60;0.88;;;;;;;18.17;95.67;97229.97;5072904;28;20601;-72
2023/09/24 10:12:07;;;;;;;2.60;0.60;;;;;;;18.75;95.58;97235.47;5072653;28;20206;-71
2023/09/24 10:14:35;;;;;;;0.70;0.70;;;;;;;18.35;91.43;97231.06;5070847;28;20220;-71
2023/09/24 10:17:24;;;;;;;1.65;0.88;;;;;;;18.61;96.37;97231.97;5071906;28;20505;-71
2023/09/24 10:19:53;;;;;;;1.10;0.60;;;;;;;18.74;94.92;97231.97;5073521;28;20311;-71
2023/09/24 10:22:27;;;;;;;1.33;0.90;;;;;;;19.22;95.90;97228.97;5071628;28;20222;-72
2023/09/24 10:24:54;;;;;;;1.35;0.80;;;;;;;19.13;94.25;97219.50;5073243;28;20203;-71
2023/09/24 10:27:24;;;;;;;3.25;0.60;;;;;;;19.47;97.22;97221.94;5071460;28;20242;-71
2023/09/24 10:30:08;;;;;;;0.40;0.40;;;;;;;19.44;87.62;97221.56;5073387;28;20219;-70
2023/09/24 10:32:45;;;;;;;2.00;0.60;;;;;;;19.59;94.50;97228.31;5071778;28;20711;-70
2023/09/24 10:35:13;;;;;;;5.57;0.90;;;;;;;19.39;93.28;97224.84;5072878;28;20298;-71
2023/09/24 10:38:03;;;;;;;0.75;0.43;;;;;;;19.81;93.36;97222.47;5072458;28;20200;-70
2023/09/24 10:40:30;;;;;;;1.00;0.70;;;;;;;19.48;95.83;97217.44;5072633;28;20774;-71
2023/09/24 10:43:15;;;;;;;0.95;0.50;;;;;;;19.79;96.58;97211.19;5073337;28;20204;-69
2023/09/24 10:45:43;;;;;;;1.13;0.65;;;;;;;20.05;90.76;97216.47;5071842;28;20192;-69
2023/09/24 10:48:10;;;;;;;0.63;0.60;;;;;;;19.62;86.64;97218.00;5073233;28;20556;-70
2023/09/24 10:50:40;;;;;;;0.50;0.50;;;;;;;19.35;87.05;97223.59;5071491;28;20609;-70
2023/09/24 10:53:07;;;;;;;0.50;0.50;;;;;;;19.24;82.09;97226.09;5072690;28;20203;-71
2023/09/24 10:55:36;;;;;;;2.50;0.82;;;;;;;19.38;90.11;97219.69;5071959;28;20259;-70
2023/09/24 10:58:05;;;;;;;0.93;0.40;;;;;;;19.06;85.78;97220.53;5072959;28;20213;-70
2023/09/24 11:00:35;;;;;;;0.52;0.52;;;;;;;18.67;92.69;97222.31;5072272;28;20263;-70
2023/09/24 11:03:03;;;;;;;2.72;0.60;;;;;;;18.68;93.73;97214.09;5072693;28;20339;-70
2023/09/24 11:05:35;;;;;;;1.50;0.88;;;;;;;18.71;100.00;97213.72;5071509;28;20234;-71
2023/09/24 11:08:01;;;;;;;0.95;0.60;;;;;;;18.53;92.56;97221.47;5071450;28;20210;-71
2023/09/24 11:10:28;;;;;;;0.73;0.52;;;;;;;18.89;97.12;97211.25;5072416;28;20233;-71
2023/09/24 11:12:57;;;;;;;0.85;0.70;;;;;;;18.58;100.00;97211.03;5072083;28;20211;-70
2023/09/24 11:15:25;;;;;;;2.03;0.75;;;;;;;18.58;95.47;97205.69;5071055;28;20234;-69
2023/09/24 11:17:54;;;;;;;0.65;0.55;;;;;;;18.56;95.10;97199.72;5070693;28;20200;-69
2023/09/24 11:20:22;;;;;;;0.75;0.60;;;;;;;18.19;93.34;97199.41;5067893;28;20215;-71
2023/09/24 11:22:57;;;;;;;1.08;0.70;;;;;;;18.67;88.81;97203.63;5071398;28;20229;-70
2023/09/24 11:25:24;;;;;;;1.08;0.80;;;;;;;18.93;90.69;97204.47;5074020;28;20199;-71
2023/09/24 11:27:52;;;;;;;1.27;0.50;;;;;;;18.70;90.19;97193.38;5072637;28;20199;-71
2023/09/24 11:30:20;;;;;;;1.30;0.50;;;;;;;18.98;86.61;97196.66;5071992;28;20578;-70